sensor_id;sensor_type;location;lat;lon;timestamp;P1;durP1;ratioP1;P2;durP2;ratioP2
22531;SDS011;11432;46.924;7.114;2023-04-15T00:01:14;3.03;;;0.80;;
22531;SDS011;11432;46.924;7.114;2023-04-15T00:03:43;1.43;;;0.60;;
22531;SDS011;11432;46.924;7.114;2023-04-15T00:06:09;4.18;;;1.00;;
22531;SDS011;11432;46.924;7.114;2023-04-15T00:08:34;5.03;;;1.10;;
22531;SDS011;11432;46.924;7.114;2023-04-15T00:11:00;2.65;;;0.70;;
22531;SDS011;11432;46.924;7.114;2023-04-15T00:13:29;3.72;;;0.93;;
22531;SDS011;11432;46.924;7.114;2023-04-15T00:16:01;2.17;;;0.73;;
22531;SDS011;11432;46.924;7.114;2023-04-15T00:18:26;1.95;;;1.00;;
22531;SDS011;11432;46.924;7.114;2023-04-15T00:20:53;3.05;;;0.90;;
22531;SDS011;11432;46.924;7.114;2023-04-15T00:23:19;3.15;;;0.93;;
22531;SDS011;11432;46.924;7.114;2023-04-15T00:25:45;3.00;;;0.95;;
22531;SDS011;11432;46.924;7.114;2023-04-15T00:28:11;1.25;;;0.70;;
22531;SDS011;11432;46.924;7.114;2023-04-15T00:30:36;2.78;;;1.00;;
22531;SDS011;11432;46.924;7.114;2023-04-15T00:33:02;3.53;;;0.90;;
22531;SDS011;11432;46.924;7.114;2023-04-15T00:35:28;2.72;;;0.80;;
22531;SDS011;11432;46.924;7.114;2023-04-15T00:37:56;3.78;;;0.88;;
22531;SDS011;11432;46.924;7.114;2023-04-15T00:40:22;1.25;;;0.73;;
22531;SDS011;11432;46.924;7.114;2023-04-15T00:42:48;1.85;;;0.90;;
22531;SDS011;11432;46.924;7.114;2023-04-15T00:45:14;3.70;;;1.00;;
22531;SDS011;11432;46.924;7.114;2023-04-15T00:47:40;2.38;;;0.77;;
22531;SDS011;11432;46.924;7.114;2023-04-15T00:50:07;1.73;;;0.73;;
22531;SDS011;11432;46.924;7.114;2023-04-15T00:52:33;4.20;;;1.00;;
22531;SDS011;11432;46.924;7.114;2023-04-15T00:54:59;1.88;;;0.80;;
22531;SDS011;11432;46.924;7.114;2023-04-15T00:57:25;1.48;;;0.70;;
22531;SDS011;11432;46.924;7.114;2023-04-15T00:59:52;2.28;;;0.70;;
22531;SDS011;11432;46.924;7.114;2023-04-15T01:02:20;2.83;;;0.80;;
22531;SDS011;11432;46.924;7.114;2023-04-15T01:04:46;5.00;;;1.05;;
22531;SDS011;11432;46.924;7.114;2023-04-15T01:07:13;2.35;;;0.75;;
22531;SDS011;11432;46.924;7.114;2023-04-15T01:09:39;1.92;;;0.73;;
22531;SDS011;11432;46.924;7.114;2023-04-15T01:12:05;3.28;;;0.98;;
22531;SDS011;11432;46.924;7.114;2023-04-15T01:14:33;2.78;;;0.95;;
22531;SDS011;11432;46.924;7.114;2023-04-15T01:16:58;2.22;;;1.00;;
22531;SDS011;11432;46.924;7.114;2023-04-15T01:19:24;2.75;;;0.75;;
22531;SDS011;11432;46.924;7.114;2023-04-15T01:21:51;2.40;;;1.00;;
22531;SDS011;11432;46.924;7.114;2023-04-15T01:24:17;3.05;;;0.93;;
22531;SDS011;11432;46.924;7.114;2023-04-15T01:26:43;1.80;;;0.95;;
22531;SDS011;11432;46.924;7.114;2023-04-15T01:29:10;2.15;;;1.00;;
22531;SDS011;11432;46.924;7.114;2023-04-15T01:31:36;2.40;;;0.80;;
22531;SDS011;11432;46.924;7.114;2023-04-15T01:34:01;2.10;;;0.85;;
22531;SDS011;11432;46.924;7.114;2023-04-15T01:36:27;2.08;;;0.70;;
22531;SDS011;11432;46.924;7.114;2023-04-15T01:38:54;1.88;;;0.80;;
22531;SDS011;11432;46.924;7.114;2023-04-15T01:41:21;2.70;;;0.85;;
22531;SDS011;11432;46.924;7.114;2023-04-15T01:43:49;2.72;;;0.98;;
22531;SDS011;11432;46.924;7.114;2023-04-15T01:46:15;1.42;;;0.80;;
22531;SDS011;11432;46.924;7.114;2023-04-15T01:48:40;2.08;;;1.00;;
22531;SDS011;11432;46.924;7.114;2023-04-15T01:51:06;3.58;;;1.00;;
22531;SDS011;11432;46.924;7.114;2023-04-15T01:53:32;1.50;;;0.90;;
22531;SDS011;11432;46.924;7.114;2023-04-15T01:55:58;2.00;;;1.08;;
22531;SDS011;11432;46.924;7.114;2023-04-15T01:58:23;1.30;;;0.80;;
22531;SDS011;11432;46.924;7.114;2023-04-15T02:00:49;3.40;;;1.08;;
22531;SDS011;11432;46.924;7.114;2023-04-15T02:03:15;2.85;;;0.95;;
22531;SDS011;11432;46.924;7.114;2023-04-15T02:05:41;3.00;;;1.05;;
22531;SDS011;11432;46.924;7.114;2023-04-15T02:08:07;2.92;;;0.80;;
22531;SDS011;11432;46.924;7.114;2023-04-15T02:10:33;1.50;;;0.70;;
22531;SDS011;11432;46.924;7.114;2023-04-15T02:12:59;0.80;;;0.50;;
22531;SDS011;11432;46.924;7.114;2023-04-15T02:15:25;2.17;;;0.70;;
22531;SDS011;11432;46.924;7.114;2023-04-15T02:17:50;1.30;;;0.68;;
22531;SDS011;11432;46.924;7.114;2023-04-15T02:20:19;1.33;;;0.50;;
22531;SDS011;11432;46.924;7.114;2023-04-15T02:22:45;1.08;;;0.50;;
22531;SDS011;11432;46.924;7.114;2023-04-15T02:25:12;1.50;;;0.50;;
22531;SDS011;11432;46.924;7.114;2023-04-15T02:27:38;0.93;;;0.60;;
22531;SDS011;11432;46.924;7.114;2023-04-15T02:30:04;1.65;;;0.70;;
22531;SDS011;11432;46.924;7.114;2023-04-15T02:32:31;1.88;;;0.70;;
22531;SDS011;11432;46.924;7.114;2023-04-15T02:35:00;1.67;;;0.70;;
22531;SDS011;11432;46.924;7.114;2023-04-15T02:37:27;1.10;;;0.55;;
22531;SDS011;11432;46.924;7.114;2023-04-15T02:39:54;2.40;;;0.50;;
22531;SDS011;11432;46.924;7.114;2023-04-15T02:42:20;1.67;;;0.70;;
22531;SDS011;11432;46.924;7.114;2023-04-15T02:44:46;1.90;;;0.57;;
22531;SDS011;11432;46.924;7.114;2023-04-15T02:47:11;1.92;;;0.70;;
22531;SDS011;11432;46.924;7.114;2023-04-15T02:49:38;1.33;;;0.80;;
22531;SDS011;11432;46.924;7.114;2023-04-15T02:52:04;1.63;;;0.80;;
22531;SDS011;11432;46.924;7.114;2023-04-15T02:54:30;1.50;;;0.70;;
22531;SDS011;11432;46.924;7.114;2023-04-15T02:56:58;1.55;;;0.70;;
22531;SDS011;11432;46.924;7.114;2023-04-15T02:59:23;2.40;;;0.80;;
22531;SDS011;11432;46.924;7.114;2023-04-15T03:01:49;4.43;;;0.73;;
22531;SDS011;11432;46.924;7.114;2023-04-15T03:04:15;1.63;;;0.70;;
22531;SDS011;11432;46.924;7.114;2023-04-15T03:06:41;0.95;;;0.77;;
22531;SDS011;11432;46.924;7.114;2023-04-15T03:09:07;2.05;;;0.70;;
22531;SDS011;11432;46.924;7.114;2023-04-15T03:11:32;1.10;;;0.60;;
22531;SDS011;11432;46.924;7.114;2023-04-15T03:13:59;1.80;;;0.88;;
22531;SDS011;11432;46.924;7.114;2023-04-15T03:16:25;1.30;;;0.70;;
22531;SDS011;11432;46.924;7.114;2023-04-15T03:18:51;1.60;;;0.80;;
22531;SDS011;11432;46.924;7.114;2023-04-15T03:21:16;1.80;;;0.77;;
22531;SDS011;11432;46.924;7.114;2023-04-15T03:23:43;0.93;;;0.68;;
22531;SDS011;11432;46.924;7.114;2023-04-15T03:26:09;4.13;;;0.90;;
22531;SDS011;11432;46.924;7.114;2023-04-15T03:28:56;3.05;;;0.80;;
22531;SDS011;11432;46.924;7.114;2023-04-15T03:31:22;3.28;;;0.93;;
22531;SDS011;11432;46.924;7.114;2023-04-15T03:33:48;1.10;;;0.60;;
22531;SDS011;11432;46.924;7.114;2023-04-15T03:36:14;3.22;;;1.00;;
22531;SDS011;11432;46.924;7.114;2023-04-15T03:38:40;1.13;;;0.82;;
22531;SDS011;11432;46.924;7.114;2023-04-15T03:41:06;1.33;;;0.88;;
22531;SDS011;11432;46.924;7.114;2023-04-15T03:43:32;2.45;;;0.90;;
22531;SDS011;11432;46.924;7.114;2023-04-15T03:45:57;2.17;;;0.85;;
22531;SDS011;11432;46.924;7.114;2023-04-15T03:48:23;3.08;;;0.88;;
22531;SDS011;11432;46.924;7.114;2023-04-15T03:50:49;1.35;;;0.85;;
22531;SDS011;11432;46.924;7.114;2023-04-15T03:53:14;2.45;;;0.90;;
22531;SDS011;11432;46.924;7.114;2023-04-15T03:55:40;1.15;;;1.00;;
22531;SDS011;11432;46.924;7.114;2023-04-15T03:58:06;2.53;;;0.88;;
22531;SDS011;11432;46.924;7.114;2023-04-15T04:00:31;3.35;;;0.90;;
22531;SDS011;11432;46.924;7.114;2023-04-15T04:02:57;1.52;;;0.93;;
22531;SDS011;11432;46.924;7.114;2023-04-15T04:05:23;3.30;;;0.90;;
22531;SDS011;11432;46.924;7.114;2023-04-15T04:07:48;2.50;;;0.85;;
22531;SDS011;11432;46.924;7.114;2023-04-15T04:10:14;1.42;;;0.88;;
22531;SDS011;11432;46.924;7.114;2023-04-15T04:12:40;2.08;;;0.98;;
22531;SDS011;11432;46.924;7.114;2023-04-15T04:15:06;1.67;;;0.82;;
22531;SDS011;11432;46.924;7.114;2023-04-15T04:17:32;2.88;;;0.90;;
22531;SDS011;11432;46.924;7.114;2023-04-15T04:19:58;1.58;;;0.93;;
22531;SDS011;11432;46.924;7.114;2023-04-15T04:22:23;1.45;;;0.80;;
22531;SDS011;11432;46.924;7.114;2023-04-15T04:24:49;2.08;;;0.93;;
22531;SDS011;11432;46.924;7.114;2023-04-15T04:27:15;1.52;;;0.82;;
22531;SDS011;11432;46.924;7.114;2023-04-15T04:29:41;1.50;;;0.88;;
22531;SDS011;11432;46.924;7.114;2023-04-15T04:32:06;1.30;;;0.70;;
22531;SDS011;11432;46.924;7.114;2023-04-15T04:34:32;1.77;;;0.80;;
22531;SDS011;11432;46.924;7.114;2023-04-15T04:36:58;2.10;;;0.90;;
22531;SDS011;11432;46.924;7.114;2023-04-15T04:39:23;2.63;;;0.70;;
22531;SDS011;11432;46.924;7.114;2023-04-15T04:41:49;0.98;;;0.75;;
22531;SDS011;11432;46.924;7.114;2023-04-15T04:44:16;1.75;;;0.90;;
22531;SDS011;11432;46.924;7.114;2023-04-15T04:46:42;1.40;;;0.68;;
22531;SDS011;11432;46.924;7.114;2023-04-15T04:49:07;4.45;;;0.88;;
22531;SDS011;11432;46.924;7.114;2023-04-15T04:51:33;1.48;;;0.60;;
22531;SDS011;11432;46.924;7.114;2023-04-15T04:53:59;1.42;;;0.63;;
22531;SDS011;11432;46.924;7.114;2023-04-15T04:56:24;1.55;;;0.93;;
22531;SDS011;11432;46.924;7.114;2023-04-15T04:58:51;2.75;;;0.70;;
22531;SDS011;11432;46.924;7.114;2023-04-15T05:01:17;2.80;;;1.10;;
22531;SDS011;11432;46.924;7.114;2023-04-15T05:03:42;2.35;;;0.73;;
22531;SDS011;11432;46.924;7.114;2023-04-15T05:06:08;2.08;;;0.90;;
22531;SDS011;11432;46.924;7.114;2023-04-15T05:08:34;4.15;;;0.80;;
22531;SDS011;11432;46.924;7.114;2023-04-15T05:11:00;1.55;;;0.88;;
22531;SDS011;11432;46.924;7.114;2023-04-15T05:13:26;1.10;;;0.73;;
22531;SDS011;11432;46.924;7.114;2023-04-15T05:15:52;1.42;;;0.90;;
22531;SDS011;11432;46.924;7.114;2023-04-15T05:18:17;1.42;;;0.82;;
22531;SDS011;11432;46.924;7.114;2023-04-15T05:20:43;1.65;;;0.90;;
22531;SDS011;11432;46.924;7.114;2023-04-15T05:23:08;3.35;;;0.85;;
22531;SDS011;11432;46.924;7.114;2023-04-15T05:25:34;2.33;;;0.60;;
22531;SDS011;11432;46.924;7.114;2023-04-15T05:28:00;1.33;;;0.68;;
22531;SDS011;11432;46.924;7.114;2023-04-15T05:30:25;2.72;;;0.80;;
22531;SDS011;11432;46.924;7.114;2023-04-15T05:32:51;1.50;;;1.08;;
22531;SDS011;11432;46.924;7.114;2023-04-15T05:35:17;1.65;;;0.90;;
22531;SDS011;11432;46.924;7.114;2023-04-15T05:37:43;2.13;;;1.00;;
22531;SDS011;11432;46.924;7.114;2023-04-15T05:40:09;1.60;;;0.98;;
22531;SDS011;11432;46.924;7.114;2023-04-15T05:42:35;1.77;;;1.00;;
22531;SDS011;11432;46.924;7.114;2023-04-15T05:45:01;2.50;;;1.20;;
22531;SDS011;11432;46.924;7.114;2023-04-15T05:47:29;2.78;;;1.25;;
22531;SDS011;11432;46.924;7.114;2023-04-15T05:49:55;2.72;;;1.02;;
22531;SDS011;11432;46.924;7.114;2023-04-15T05:52:22;2.15;;;1.38;;
22531;SDS011;11432;46.924;7.114;2023-04-15T05:54:48;2.75;;;1.20;;
22531;SDS011;11432;46.924;7.114;2023-04-15T05:57:14;3.22;;;1.20;;
22531;SDS011;11432;46.924;7.114;2023-04-15T05:59:40;2.95;;;1.13;;
22531;SDS011;11432;46.924;7.114;2023-04-15T06:02:06;2.53;;;1.38;;
22531;SDS011;11432;46.924;7.114;2023-04-15T06:04:33;3.03;;;1.42;;
22531;SDS011;11432;46.924;7.114;2023-04-15T06:06:59;1.80;;;1.10;;
22531;SDS011;11432;46.924;7.114;2023-04-15T06:09:25;6.47;;;1.40;;
22531;SDS011;11432;46.924;7.114;2023-04-15T06:11:50;3.10;;;1.20;;
22531;SDS011;11432;46.924;7.114;2023-04-15T06:14:17;2.00;;;1.17;;
22531;SDS011;11432;46.924;7.114;2023-04-15T06:16:42;2.47;;;1.40;;
22531;SDS011;11432;46.924;7.114;2023-04-15T06:19:08;3.13;;;1.65;;
22531;SDS011;11432;46.924;7.114;2023-04-15T06:21:33;3.80;;;1.33;;
22531;SDS011;11432;46.924;7.114;2023-04-15T06:23:59;4.07;;;1.30;;
22531;SDS011;11432;46.924;7.114;2023-04-15T06:26:25;4.80;;;1.50;;
22531;SDS011;11432;46.924;7.114;2023-04-15T06:28:52;4.50;;;1.20;;
22531;SDS011;11432;46.924;7.114;2023-04-15T06:31:17;2.92;;;1.42;;
22531;SDS011;11432;46.924;7.114;2023-04-15T06:33:43;2.22;;;1.05;;
22531;SDS011;11432;46.924;7.114;2023-04-15T06:36:09;2.78;;;1.42;;
22531;SDS011;11432;46.924;7.114;2023-04-15T06:38:35;2.50;;;1.63;;
22531;SDS011;11432;46.924;7.114;2023-04-15T06:41:01;2.97;;;1.38;;
22531;SDS011;11432;46.924;7.114;2023-04-15T06:43:27;2.72;;;1.30;;
22531;SDS011;11432;46.924;7.114;2023-04-15T06:45:53;2.75;;;1.50;;
22531;SDS011;11432;46.924;7.114;2023-04-15T06:48:20;2.08;;;1.15;;
22531;SDS011;11432;46.924;7.114;2023-04-15T06:50:46;3.38;;;1.13;;
22531;SDS011;11432;46.924;7.114;2023-04-15T06:53:12;2.00;;;1.02;;
22531;SDS011;11432;46.924;7.114;2023-04-15T06:55:38;2.10;;;1.17;;
22531;SDS011;11432;46.924;7.114;2023-04-15T06:58:05;4.88;;;1.13;;
22531;SDS011;11432;46.924;7.114;2023-04-15T07:00:31;6.13;;;1.90;;
22531;SDS011;11432;46.924;7.114;2023-04-15T07:02:57;2.88;;;1.35;;
22531;SDS011;11432;46.924;7.114;2023-04-15T07:05:28;4.25;;;1.20;;
22531;SDS011;11432;46.924;7.114;2023-04-15T07:07:54;5.47;;;1.27;;
22531;SDS011;11432;46.924;7.114;2023-04-15T07:10:20;5.47;;;1.20;;
22531;SDS011;11432;46.924;7.114;2023-04-15T07:12:46;4.13;;;1.10;;
22531;SDS011;11432;46.924;7.114;2023-04-15T07:15:13;3.33;;;1.10;;
22531;SDS011;11432;46.924;7.114;2023-04-15T07:17:39;5.32;;;1.33;;
22531;SDS011;11432;46.924;7.114;2023-04-15T07:20:05;3.05;;;1.20;;
22531;SDS011;11432;46.924;7.114;2023-04-15T07:22:32;3.30;;;1.42;;
22531;SDS011;11432;46.924;7.114;2023-04-15T07:24:58;4.53;;;1.17;;
22531;SDS011;11432;46.924;7.114;2023-04-15T07:27:23;2.15;;;0.90;;
22531;SDS011;11432;46.924;7.114;2023-04-15T07:29:49;3.40;;;1.10;;
22531;SDS011;11432;46.924;7.114;2023-04-15T07:32:16;4.35;;;1.10;;
22531;SDS011;11432;46.924;7.114;2023-04-15T07:34:41;3.60;;;1.30;;
22531;SDS011;11432;46.924;7.114;2023-04-15T07:37:08;2.78;;;1.08;;
22531;SDS011;11432;46.924;7.114;2023-04-15T07:39:33;5.05;;;1.10;;
22531;SDS011;11432;46.924;7.114;2023-04-15T07:41:59;2.65;;;1.08;;
22531;SDS011;11432;46.924;7.114;2023-04-15T07:44:25;2.20;;;0.90;;
22531;SDS011;11432;46.924;7.114;2023-04-15T07:46:51;3.53;;;1.05;;
22531;SDS011;11432;46.924;7.114;2023-04-15T07:49:17;1.70;;;1.10;;
22531;SDS011;11432;46.924;7.114;2023-04-15T07:51:43;3.72;;;1.15;;
22531;SDS011;11432;46.924;7.114;2023-04-15T07:54:09;2.50;;;1.13;;
22531;SDS011;11432;46.924;7.114;2023-04-15T07:56:35;3.20;;;1.00;;
22531;SDS011;11432;46.924;7.114;2023-04-15T07:59:01;1.75;;;0.73;;
22531;SDS011;11432;46.924;7.114;2023-04-15T08:01:28;3.47;;;1.10;;
22531;SDS011;11432;46.924;7.114;2023-04-15T08:03:55;1.38;;;0.80;;
22531;SDS011;11432;46.924;7.114;2023-04-15T08:06:21;2.38;;;1.23;;
22531;SDS011;11432;46.924;7.114;2023-04-15T08:08:47;0.98;;;0.80;;
22531;SDS011;11432;46.924;7.114;2023-04-15T08:11:12;1.60;;;0.68;;
22531;SDS011;11432;46.924;7.114;2023-04-15T08:13:38;1.58;;;0.50;;
22531;SDS011;11432;46.924;7.114;2023-04-15T08:16:20;0.88;;;0.60;;
22531;SDS011;11432;46.924;7.114;2023-04-15T08:18:47;1.02;;;0.40;;
22531;SDS011;11432;46.924;7.114;2023-04-15T08:21:14;0.77;;;0.17;;
22531;SDS011;11432;46.924;7.114;2023-04-15T08:23:41;0.73;;;0.05;;
22531;SDS011;11432;46.924;7.114;2023-04-15T08:26:07;0.17;;;0.10;;
22531;SDS011;11432;46.924;7.114;2023-04-15T08:28:33;0.17;;;0.10;;
22531;SDS011;11432;46.924;7.114;2023-04-15T08:30:59;0.75;;;0.10;;
22531;SDS011;11432;46.924;7.114;2023-04-15T08:33:25;0.70;;;0.10;;
22531;SDS011;11432;46.924;7.114;2023-04-15T08:35:52;0.20;;;0.03;;
22531;SDS011;11432;46.924;7.114;2023-04-15T08:38:18;1.60;;;0.03;;
22531;SDS011;11432;46.924;7.114;2023-04-15T08:40:44;0.10;;;0.00;;
22531;SDS011;11432;46.924;7.114;2023-04-15T08:43:12;0.15;;;0.00;;
22531;SDS011;11432;46.924;7.114;2023-04-15T08:45:52;0.50;;;0.15;;
22531;SDS011;11432;46.924;7.114;2023-04-15T08:48:19;0.03;;;0.00;;
22531;SDS011;11432;46.924;7.114;2023-04-15T08:50:45;0.35;;;0.10;;
22531;SDS011;11432;46.924;7.114;2023-04-15T08:53:12;0.30;;;0.10;;
22531;SDS011;11432;46.924;7.114;2023-04-15T08:55:43;0.28;;;0.10;;
22531;SDS011;11432;46.924;7.114;2023-04-15T08:58:10;0.60;;;0.10;;
22531;SDS011;11432;46.924;7.114;2023-04-15T09:00:36;0.22;;;0.00;;
22531;SDS011;11432;46.924;7.114;2023-04-15T09:03:05;0.30;;;0.20;;
22531;SDS011;11432;46.924;7.114;2023-04-15T09:05:34;0.73;;;0.10;;
22531;SDS011;11432;46.924;7.114;2023-04-15T09:08:01;0.17;;;0.13;;
22531;SDS011;11432;46.924;7.114;2023-04-15T09:10:27;0.25;;;0.13;;
22531;SDS011;11432;46.924;7.114;2023-04-15T09:12:54;0.45;;;0.20;;
22531;SDS011;11432;46.924;7.114;2023-04-15T09:15:20;0.20;;;0.10;;
22531;SDS011;11432;46.924;7.114;2023-04-15T09:17:48;1.10;;;0.10;;
22531;SDS011;11432;46.924;7.114;2023-04-15T09:20:15;0.95;;;0.20;;
22531;SDS011;11432;46.924;7.114;2023-04-15T09:22:44;3.08;;;0.20;;
22531;SDS011;11432;46.924;7.114;2023-04-15T09:30:26;0.43;;;0.10;;
22531;SDS011;11432;46.924;7.114;2023-04-15T09:32:56;0.30;;;0.03;;
22531;SDS011;11432;46.924;7.114;2023-04-15T09:35:23;1.13;;;0.25;;
22531;SDS011;11432;46.924;7.114;2023-04-15T09:37:50;0.77;;;0.20;;
22531;SDS011;11432;46.924;7.114;2023-04-15T09:40:36;0.20;;;0.13;;
22531;SDS011;11432;46.924;7.114;2023-04-15T09:43:03;0.40;;;0.10;;
22531;SDS011;11432;46.924;7.114;2023-04-15T09:45:30;0.60;;;0.28;;
22531;SDS011;11432;46.924;7.114;2023-04-15T09:47:57;0.28;;;0.10;;
22531;SDS011;11432;46.924;7.114;2023-04-15T09:50:26;0.30;;;0.20;;
22531;SDS011;11432;46.924;7.114;2023-04-15T09:52:55;1.17;;;0.22;;
22531;SDS011;11432;46.924;7.114;2023-04-15T09:55:21;1.52;;;0.40;;
22531;SDS011;11432;46.924;7.114;2023-04-15T09:57:46;0.30;;;0.20;;
22531;SDS011;11432;46.924;7.114;2023-04-15T10:00:12;1.58;;;0.20;;
22531;SDS011;11432;46.924;7.114;2023-04-15T10:02:39;1.75;;;0.30;;
22531;SDS011;11432;46.924;7.114;2023-04-15T10:05:06;0.20;;;0.15;;
22531;SDS011;11432;46.924;7.114;2023-04-15T10:07:34;0.60;;;0.17;;
22531;SDS011;11432;46.924;7.114;2023-04-15T10:10:00;0.25;;;0.10;;
22531;SDS011;11432;46.924;7.114;2023-04-15T10:12:28;0.50;;;0.10;;
22531;SDS011;11432;46.924;7.114;2023-04-15T10:14:59;0.57;;;0.20;;
22531;SDS011;11432;46.924;7.114;2023-04-15T10:17:29;0.38;;;0.30;;
22531;SDS011;11432;46.924;7.114;2023-04-15T10:19:59;0.68;;;0.30;;
22531;SDS011;11432;46.924;7.114;2023-04-15T10:22:26;0.50;;;0.30;;
22531;SDS011;11432;46.924;7.114;2023-04-15T10:24:52;1.65;;;0.10;;
22531;SDS011;11432;46.924;7.114;2023-04-15T10:27:20;0.45;;;0.20;;
22531;SDS011;11432;46.924;7.114;2023-04-15T10:29:46;0.65;;;0.17;;
22531;SDS011;11432;46.924;7.114;2023-04-15T10:32:13;0.60;;;0.20;;
22531;SDS011;11432;46.924;7.114;2023-04-15T10:34:40;0.13;;;0.10;;
22531;SDS011;11432;46.924;7.114;2023-04-15T10:37:08;1.08;;;0.20;;
22531;SDS011;11432;46.924;7.114;2023-04-15T10:42:34;0.98;;;0.20;;
22531;SDS011;11432;46.924;7.114;2023-04-15T10:44:58;1.08;;;0.20;;
22531;SDS011;11432;46.924;7.114;2023-04-15T10:47:24;2.30;;;0.38;;
22531;SDS011;11432;46.924;7.114;2023-04-15T10:49:56;0.88;;;0.17;;
22531;SDS011;11432;46.924;7.114;2023-04-15T10:52:24;0.95;;;0.20;;
22531;SDS011;11432;46.924;7.114;2023-04-15T10:55:01;0.30;;;0.10;;
22531;SDS011;11432;46.924;7.114;2023-04-15T10:57:40;0.40;;;0.20;;
22531;SDS011;11432;46.924;7.114;2023-04-15T11:05:15;0.65;;;0.50;;
22531;SDS011;11432;46.924;7.114;2023-04-15T11:07:56;0.90;;;0.28;;
22531;SDS011;11432;46.924;7.114;2023-04-15T11:13:01;1.02;;;0.30;;
22531;SDS011;11432;46.924;7.114;2023-04-15T11:18:14;0.73;;;0.30;;
22531;SDS011;11432;46.924;7.114;2023-04-15T11:20:44;0.60;;;0.20;;
22531;SDS011;11432;46.924;7.114;2023-04-15T11:23:12;1.13;;;0.20;;
22531;SDS011;11432;46.924;7.114;2023-04-15T11:25:44;0.68;;;0.20;;
22531;SDS011;11432;46.924;7.114;2023-04-15T11:28:10;0.28;;;0.10;;
22531;SDS011;11432;46.924;7.114;2023-04-15T11:30:37;0.45;;;0.32;;
22531;SDS011;11432;46.924;7.114;2023-04-15T11:33:07;1.63;;;0.30;;
22531;SDS011;11432;46.924;7.114;2023-04-15T11:35:34;0.57;;;0.20;;
22531;SDS011;11432;46.924;7.114;2023-04-15T11:38:03;1.33;;;0.15;;
22531;SDS011;11432;46.924;7.114;2023-04-15T11:40:32;0.10;;;0.10;;
22531;SDS011;11432;46.924;7.114;2023-04-15T11:43:12;0.40;;;0.10;;
22531;SDS011;11432;46.924;7.114;2023-04-15T11:48:19;0.60;;;0.20;;
22531;SDS011;11432;46.924;7.114;2023-04-15T11:50:50;0.45;;;0.20;;
22531;SDS011;11432;46.924;7.114;2023-04-15T11:56:06;0.32;;;0.25;;
22531;SDS011;11432;46.924;7.114;2023-04-15T11:58:34;0.10;;;0.10;;
22531;SDS011;11432;46.924;7.114;2023-04-15T12:01:03;1.13;;;0.22;;
22531;SDS011;11432;46.924;7.114;2023-04-15T12:03:35;3.67;;;0.20;;
22531;SDS011;11432;46.924;7.114;2023-04-15T12:06:06;0.32;;;0.22;;
22531;SDS011;11432;46.924;7.114;2023-04-15T12:16:20;0.50;;;0.30;;
22531;SDS011;11432;46.924;7.114;2023-04-15T12:18:53;0.40;;;0.20;;
22531;SDS011;11432;46.924;7.114;2023-04-15T12:21:21;0.43;;;0.30;;
22531;SDS011;11432;46.924;7.114;2023-04-15T12:23:52;0.20;;;0.10;;
22531;SDS011;11432;46.924;7.114;2023-04-15T12:26:25;0.30;;;0.20;;
22531;SDS011;11432;46.924;7.114;2023-04-15T12:28:53;0.10;;;0.10;;
22531;SDS011;11432;46.924;7.114;2023-04-15T12:34:24;1.77;;;0.73;;
22531;SDS011;11432;46.924;7.114;2023-04-15T12:36:54;0.63;;;0.20;;
22531;SDS011;11432;46.924;7.114;2023-04-15T12:39:25;2.58;;;0.20;;
22531;SDS011;11432;46.924;7.114;2023-04-15T12:41:52;0.30;;;0.25;;
22531;SDS011;11432;46.924;7.114;2023-04-15T12:44:19;1.25;;;0.17;;
22531;SDS011;11432;46.924;7.114;2023-04-15T12:46:46;0.43;;;0.10;;
22531;SDS011;11432;46.924;7.114;2023-04-15T12:49:12;0.45;;;0.10;;
22531;SDS011;11432;46.924;7.114;2023-04-15T12:51:43;0.20;;;0.20;;
22531;SDS011;11432;46.924;7.114;2023-04-15T12:54:09;0.10;;;0.10;;
22531;SDS011;11432;46.924;7.114;2023-04-15T12:56:35;0.35;;;0.13;;
22531;SDS011;11432;46.924;7.114;2023-04-15T12:59:01;0.10;;;0.10;;
22531;SDS011;11432;46.924;7.114;2023-04-15T13:01:26;0.55;;;0.20;;
22531;SDS011;11432;46.924;7.114;2023-04-15T13:03:52;1.13;;;0.20;;
22531;SDS011;11432;46.924;7.114;2023-04-15T13:06:18;0.20;;;0.20;;
22531;SDS011;11432;46.924;7.114;2023-04-15T13:08:43;0.10;;;0.10;;
22531;SDS011;11432;46.924;7.114;2023-04-15T13:11:09;0.28;;;0.10;;
22531;SDS011;11432;46.924;7.114;2023-04-15T13:13:35;1.10;;;0.13;;
22531;SDS011;11432;46.924;7.114;2023-04-15T13:16:01;0.80;;;0.15;;
22531;SDS011;11432;46.924;7.114;2023-04-15T13:18:26;1.00;;;0.13;;
22531;SDS011;11432;46.924;7.114;2023-04-15T13:20:52;0.80;;;0.22;;
22531;SDS011;11432;46.924;7.114;2023-04-15T13:23:19;0.25;;;0.10;;
22531;SDS011;11432;46.924;7.114;2023-04-15T13:25:44;0.60;;;0.28;;
22531;SDS011;11432;46.924;7.114;2023-04-15T13:28:10;1.55;;;0.25;;
22531;SDS011;11432;46.924;7.114;2023-04-15T13:30:36;0.43;;;0.20;;
22531;SDS011;11432;46.924;7.114;2023-04-15T13:33:03;0.30;;;0.20;;
22531;SDS011;11432;46.924;7.114;2023-04-15T13:35:30;0.45;;;0.20;;
22531;SDS011;11432;46.924;7.114;2023-04-15T13:37:56;0.38;;;0.22;;
22531;SDS011;11432;46.924;7.114;2023-04-15T13:40:22;0.38;;;0.25;;
22531;SDS011;11432;46.924;7.114;2023-04-15T13:42:47;0.30;;;0.20;;
22531;SDS011;11432;46.924;7.114;2023-04-15T13:45:13;0.10;;;0.10;;
22531;SDS011;11432;46.924;7.114;2023-04-15T13:47:39;0.30;;;0.20;;
22531;SDS011;11432;46.924;7.114;2023-04-15T13:50:05;0.35;;;0.20;;
22531;SDS011;11432;46.924;7.114;2023-04-15T13:52:31;0.00;;;0.00;;
22531;SDS011;11432;46.924;7.114;2023-04-15T13:54:56;0.10;;;0.10;;
22531;SDS011;11432;46.924;7.114;2023-04-15T13:57:22;1.00;;;0.08;;
22531;SDS011;11432;46.924;7.114;2023-04-15T13:59:48;0.32;;;0.10;;
22531;SDS011;11432;46.924;7.114;2023-04-15T14:02:13;0.17;;;0.10;;
22531;SDS011;11432;46.924;7.114;2023-04-15T14:04:39;0.47;;;0.10;;
22531;SDS011;11432;46.924;7.114;2023-04-15T14:07:04;0.30;;;0.20;;
22531;SDS011;11432;46.924;7.114;2023-04-15T14:09:30;2.50;;;0.60;;
22531;SDS011;11432;46.924;7.114;2023-04-15T14:11:55;1.23;;;0.60;;
22531;SDS011;11432;46.924;7.114;2023-04-15T14:14:23;2.15;;;0.45;;
22531;SDS011;11432;46.924;7.114;2023-04-15T14:16:49;1.02;;;0.30;;
22531;SDS011;11432;46.924;7.114;2023-04-15T14:19:14;2.05;;;0.60;;
22531;SDS011;11432;46.924;7.114;2023-04-15T14:21:40;0.40;;;0.22;;
22531;SDS011;11432;46.924;7.114;2023-04-15T14:24:06;4.00;;;0.60;;
22531;SDS011;11432;46.924;7.114;2023-04-15T14:26:31;0.85;;;0.40;;
22531;SDS011;11432;46.924;7.114;2023-04-15T14:28:57;0.20;;;0.10;;
22531;SDS011;11432;46.924;7.114;2023-04-15T14:31:22;0.30;;;0.22;;
22531;SDS011;11432;46.924;7.114;2023-04-15T14:33:48;0.40;;;0.15;;
22531;SDS011;11432;46.924;7.114;2023-04-15T14:36:13;0.95;;;0.20;;
22531;SDS011;11432;46.924;7.114;2023-04-15T14:38:39;2.50;;;0.20;;
22531;SDS011;11432;46.924;7.114;2023-04-15T14:41:05;0.82;;;0.20;;
22531;SDS011;11432;46.924;7.114;2023-04-15T14:43:32;0.10;;;0.10;;
22531;SDS011;11432;46.924;7.114;2023-04-15T14:45:58;0.20;;;0.10;;
22531;SDS011;11432;46.924;7.114;2023-04-15T14:48:23;0.52;;;0.30;;
22531;SDS011;11432;46.924;7.114;2023-04-15T14:50:49;0.52;;;0.32;;
22531;SDS011;11432;46.924;7.114;2023-04-15T14:53:15;0.80;;;0.50;;
22531;SDS011;11432;46.924;7.114;2023-04-15T14:55:41;1.55;;;0.45;;
22531;SDS011;11432;46.924;7.114;2023-04-15T14:58:07;1.10;;;0.47;;
22531;SDS011;11432;46.924;7.114;2023-04-15T15:00:33;0.98;;;0.40;;
22531;SDS011;11432;46.924;7.114;2023-04-15T15:03:00;0.82;;;0.50;;
22531;SDS011;11432;46.924;7.114;2023-04-15T15:05:25;1.25;;;0.30;;
22531;SDS011;11432;46.924;7.114;2023-04-15T15:07:51;0.30;;;0.30;;
22531;SDS011;11432;46.924;7.114;2023-04-15T15:10:17;0.20;;;0.20;;
22531;SDS011;11432;46.924;7.114;2023-04-15T15:12:42;2.03;;;0.50;;
22531;SDS011;11432;46.924;7.114;2023-04-15T15:15:08;0.52;;;0.30;;
22531;SDS011;11432;46.924;7.114;2023-04-15T15:17:34;1.20;;;0.30;;
22531;SDS011;11432;46.924;7.114;2023-04-15T15:20:00;0.10;;;0.10;;